Taftsville, VT (05073)

2:04 AM EDT on May 06, 2015 (GMT -0400)
Quechee Lakes Sec 1 | | Change Station
CLOSE
Current Station
Personal Weather Station
Location: Quechee, VT
Elevation: 1180 ft
Nearby Weather Stations

Elev 1180 ft 43.65 °N, 72.46 °W | Updated 20 seconds ago

Partly Cloudy
Partly Cloudy
47.6 °F
Feels Like 48 °F
N
0.0
Wind Variable Wind from SW
Gusts 0.0 mph

Today
High -- | Low -- °F
--% Chance of Precip.
Yesterday
High -- | Low -- °F
Precip. -- in
5:35 AM 7:57 PM
Waning Gibbous, 95% visible
Pressure 30.26 in
Visibility 10.0 miles
Clouds Clear
Windchill 48 °F
Dew Point 34 °F
Humidity 58%
Rainfall 0.00 in
Snow Depth Not available.
UV 0 out of 12
Pollen 8.90 out of 12
Air Quality Not available.
Flu Activity Regional
METAR KLEB 060553Z AUTO 00000KT 10SM CLR 07/02 A3027 RMK AO2 SLP246 T00670022 10178 20061 51009

More Conditions Fewer Conditions

Pressure 30.26 in
Visibility 10.0 miles
Clouds Clear
Windchill 48 °F
Dew Point 34 °F
Humidity 58%
Rainfall 0.00 in
Snow Depth Not available.
UV 0 out of 12
Pollen 8.90 out of 12
Air Quality Not available.
Flu Activity Regional
METAR KLEB 060553Z AUTO 00000KT 10SM CLR 07/02 A3027 RMK AO2 SLP246 T00670022 10178 20061 51009

More Conditions Fewer Conditions

10-Day Weather Forecast

Almanac

Astronomy

May. 06, 2015 Rise Set
Actual Time
Civil Twilight
Nautical Twilight
Astronomical Twilight
Moon
Length of Visible Light
Length of Day
Tomorrow will be .
, % of the Moon is Illuminated

Today's Extremes

State Highs State Lows

Community

WunderPhotos

Upload Photos

1,818,848 photos uploaded!

WunderBlogs® & News

Nearby

Air Quality

  Air Quality AQ Index Pollutant
Not available.

Snow Depth

Station Depth Elevation

Earthquake Activity

City Distance Mag. Time & Date
Minimum magnitude displayed is 2.5.

Coastal Water Temperatures

Place Temperature

Stations

Nearby Weather Stations

Station Location Temp. Windchill Dew Point Humidity Wind Precip. Elev Updated Type